Werte bis 5 Uhr SommerzeitDiagramme Wüstensachsen: Tagesdaten Monatsdaten WindroseCSV-Datei: Wuestensachsen21.csv

Wetterdaten 2021 Station: Wüstensachsen
Temperaturen in °C relative Nieder- Global- Wind Wind Wind- Sonnen-
Datum Boden Boden Luft Luft Luft Luft Feuchte schlag strahlung max richtung schein
20 cm 5 cm 20 cm 2 m 2 m max 2 m min % mm W/m2*d m/s m/s ° h

28.10.2021 0,0 8,1 3,4 5,4 5,6 5,0 98 0,0 0 0,6 1,5 129 ---
27.10.2021 0,0 8,3 7,9 8,2 10,8 4,9 90 0,0 917 0,8 4,6 216 2,7
26.10.2021 0,0 8,0 7,6 7,9 10,7 6,1 89 0,0 754 1,1 5,7 239 1,8
25.10.2021 0,0 7,1 8,2 8,9 14,0 3,4 59 0,0 2741 1,3 6,3 184 7,5
24.10.2021 0,0 6,8 5,2 5,6 9,7 2,3 62 0,0 3004 2,9 14,4 168 7,7
23.10.2021 0,0 7,5 3,4 4,0 8,8 1,3 79 0,0 2381 1,2 6,8 243 6,1
22.10.2021 0,0 7,9 3,8 4,0 5,7 2,2 84 1,2 1420 2,2 10,5 264 3,8
21.10.2021 0,0 9,7 7,0 7,3 12,3 3,0 83 21,2 1144 3,1 15,5 251 3,5
20.10.2021 0,0 10,1 13,1 13,5 14,3 11,7 68 1,7 1210 2,3 11,7 221 4,8
19.10.2021 0,0 9,0 10,7 11,1 13,2 7,8 82 0,6 865 1,7 8,6 214 2,4
18.10.2021 0,0 8,3 6,2 7,0 12,1 2,9 77 0,0 2861 0,9 4,5 144 7,6
17.10.2021 0,0 8,4 6,2 6,6 9,6 3,5 75 0,0 1174 0,4 2,2 133 4,5
16.10.2021 0,0 8,3 4,6 5,3 10,2 1,2 81 0,1 1591 0,7 2,4 138 5,3
15.10.2021 0,0 9,2 6,3 6,8 10,0 3,2 91 0,9 1432 1,1 7,8 232 4,6
14.10.2021 0,0 9,0 7,0 7,0 8,4 5,7 97 1,8 802 1,1 5,9 260 2,2
13.10.2021 0,0 8,9 5,2 5,2 9,0 3,5 89 1,1 2098 0,8 5,4 286 5,9
12.10.2021 0,0 9,2 5,6 5,7 7,5 3,5 95 10,8 596 1,1 7,8 295 0,9
11.10.2021 0,0 9,0 6,4 6,9 9,0 4,3 90 0,8 1093 0,8 5,8 275 3,8
10.10.2021 0,0 9,2 5,9 6,8 14,7 1,6 63 0,0 3552 0,9 3,8 155 7,6
09.10.2021 0,0 9,9 7,3 8,1 15,4 3,6 65 0,0 3729 0,9 6,3 149 8,0
08.10.2021 0,0 10,5 7,7 8,4 13,8 4,9 83 0,0 1999 0,9 6,2 99 7,2
07.10.2021 0,0 11,1 8,1 8,5 13,6 5,7 84 0,0 2056 0,7 3,2 128 7,4
06.10.2021 0,0 11,3 7,8 7,9 11,2 7,0 88 4,5 1588 1,2 7,7 225 3,9
05.10.2021 0,0 11,8 9,7 9,8 14,9 7,7 88 6,8 1641 1,1 10,7 216 5,0
04.10.2021 0,0 12,4 9,5 9,6 14,1 7,8 89 2,6 1358 0,5 3,6 219 3,8
03.10.2021 0,0 12,7 14,3 14,5 18,8 10,3 69 1,7 1169 2,6 11,1 182 4,3
02.10.2021 0,0 12,2 13,7 13,7 17,9 9,8 62 0,0 3517 2,2 10,9 185 7,8
01.10.2021 0,0 11,5 10,8 11,0 15,7 5,8 56 0,0 3828 1,5 8,5 166 8,2
30.09.2021 0,0 11,8 8,0 7,9 12,8 4,9 70 0,1 3288 1,1 6,5 228 7,6
29.09.2021 0,0 13,0 9,3 9,5 14,5 5,3 80 4,2 2032 1,3 9,7 234 5,3
28.09.2021 0,0 14,0 11,0 11,1 16,3 8,4 77 1,1 3296 0,9 7,8 294 8,5
27.09.2021 0,0 14,8 15,1 15,1 19,1 10,4 81 2,0 2396 0,9 5,6 219 6,6
26.09.2021 0,0 14,5 17,4 17,4 22,2 14,0 76 1,9 3266 1,0 5,0 188 7,0
25.09.2021 0,0 13,7 14,7 15,1 22,2 10,2 67 0,0 4140 1,0 7,6 186 8,0
24.09.2021 0,0 13,5 13,4 13,3 17,4 11,4 83 0,1 2783 1,1 6,3 255 6,2
23.09.2021 0,0 12,6 13,3 13,5 19,0 8,3 66 0,0 4159 1,4 10,6 233 8,0
22.09.2021 0,0 12,1 10,6 11,0 17,2 7,0 77 0,0 2917 0,9 3,8 238 7,6
21.09.2021 0,0 11,8 7,5 8,0 13,8 2,6 70 0,0 2697 0,9 3,2 137 8,5
20.09.2021 0,0 12,5 8,3 8,3 12,2 5,5 68 0,0 2239 0,8 5,0 111 6,7
19.09.2021 0,0 13,4 9,0 9,1 11,5 4,7 83 0,0 1393 0,7 4,3 64 6,2
18.09.2021 0,0 14,4 11,9 12,2 16,3 9,3 82 0,2 2543 0,7 5,2 21 6,6
17.09.2021 0,0 15,0 12,3 12,5 17,0 10,0 81 0,0 2422 0,7 3,3 260 7,5
16.09.2021 0,0 15,7 13,0 13,0 15,8 11,0 86 0,8 1822 0,6 3,9 295 6,2
15.09.2021 0,0 16,0 17,2 17,3 18,7 15,7 87 13,1 1558 1,0 5,5 223 5,1
14.09.2021 0,0 15,5 17,8 18,2 23,8 13,8 66 0,0 4239 1,9 8,2 159 8,1
13.09.2021 0,0 15,1 13,8 14,4 21,3 9,0 73 0,0 4172 0,8 5,6 149 8,5
12.09.2021 0,0 15,7 14,1 14,5 20,7 10,4 79 0,0 3210 0,8 3,0 189 7,7
11.09.2021 0,0 16,5 16,2 16,2 21,6 11,9 85 4,6 2804 0,7 4,4 242 7,3
10.09.2021 0,0 16,4 18,1 18,2 24,0 14,8 76 0,0 4314 0,8 6,1 200 7,9
09.09.2021 0,0 15,7 18,7 19,1 25,1 13,5 66 0,0 4701 1,1 6,8 182 8,5
08.09.2021 0,0 15,3 16,7 17,4 23,4 11,8 58 0,0 4889 1,2 5,4 144 8,0
07.09.2021 0,0 15,3 16,5 17,1 23,1 12,1 64 0,0 4448 0,8 5,1 117 9,4
06.09.2021 0,0 14,9 16,0 16,9 24,3 12,0 68 0,0 4568 1,0 2,9 163 8,5
05.09.2021 0,0 14,5 14,6 15,7 22,5 11,2 69 0,0 2980 0,7 2,9 144 6,7
04.09.2021 0,0 14,8 15,0 16,1 23,4 11,3 65 0,0 4056 0,8 3,4 107 8,6
03.09.2021 0,0 14,7 15,7 16,4 23,6 10,6 63 0,0 5567 0,9 3,9 151 8,1
02.09.2021 0,0 14,0 13,7 14,4 20,6 9,0 72 0,0 5017 0,9 7,1 128 8,4
01.09.2021 0,0 14,0 11,9 12,2 17,3 8,7 81 0,0 3785 0,8 4,1 51 8,0
31.08.2021 0,0 13,9 12,1 12,4 17,5 9,4 85 0,0 2737 1,1 4,9 354 8,2
30.08.2021 0,0 13,7 12,2 12,2 13,7 11,5 95 18,0 1035 1,5 8,3 351 2,5
29.08.2021 0,0 13,9 11,9 11,8 13,4 10,3 95 22,5 1269 0,7 6,1 321 3,9
28.08.2021 0,0 14,1 11,6 11,6 15,4 9,4 84 3,4 3205 0,8 4,6 337 8,5
27.08.2021 0,0 14,0 10,4 10,4 13,1 8,9 92 9,8 2042 1,1 6,1 298 6,3
26.08.2021 0,0 14,7 11,7 11,6 17,3 9,1 83 6,6 3158 1,0 8,5 301 7,8
25.08.2021 0,0 14,3 13,5 13,8 19,9 7,9 63 0,0 5584 0,7 4,5 287 8,6
24.08.2021 0,0 14,1 10,8 11,3 17,2 6,9 79 0,0 3221 0,8 6,3 69 8,2
23.08.2021 0,0 15,2 12,3 12,7 15,8 9,1 92 1,7 1581 0,9 6,3 320 4,9
22.08.2021 0,0 16,1 14,8 14,9 20,4 11,5 85 10,8 1773 0,9 6,1 237 5,2
21.08.2021 0,0 16,3 17,4 17,8 23,9 11,5 64 0,0 5025 1,0 4,8 157 9,2
20.08.2021 0,0 16,2 15,0 15,2 21,0 12,2 76 0,0 5012 0,9 4,1 231 8,9
19.08.2021 0,0 15,6 14,7 14,5 18,8 12,7 86 1,2 2673 1,1 5,9 248 8,5
18.08.2021 0,0 14,9 13,1 13,0 16,0 10,2 89 5,5 2653 1,1 7,0 255 7,9
17.08.2021 0,0 14,9 10,3 10,2 13,6 7,8 86 6,3 2312 1,4 7,8 265 7,7
16.08.2021 0,0 16,7 14,2 14,1 19,7 7,8 77 11,9 3189 1,6 10,1 264 7,6
15.08.2021 0,0 17,5 18,5 19,0 25,4 12,8 55 0,0 5668 0,9 6,4 184 9,3
14.08.2021 0,0 17,8 19,2 19,7 26,6 13,5 59 0,0 5885 1,1 4,8 193 8,7
13.08.2021 0,0 17,5 20,1 20,6 27,3 14,6 66 0,0 5238 0,8 5,1 194 8,5
12.08.2021 0,0 16,5 18,9 19,1 24,6 15,3 63 0,0 4557 1,2 5,5 159 10,3
11.08.2021 0,0 16,0 15,8 16,2 22,4 11,3 73 0,2 4481 0,7 3,6 204 9,5
10.08.2021 0,0 15,1 16,2 16,0 20,9 13,6 70 1,9 4189 0,8 5,4 216 8,5
09.08.2021 0,0 14,7 14,8 15,1 20,4 11,0 63 0,0 4150 1,2 7,2 203 9,1
08.08.2021 0,0 15,2 13,8 13,5 18,4 10,7 74 1,7 3991 1,5 9,5 231 8,9
07.08.2021 0,0 15,2 15,3 15,3 19,5 11,5 76 0,0 3299 1,4 7,9 189 7,4
06.08.2021 0,0 15,4 15,0 14,9 19,5 12,0 80 0,9 3408 1,1 7,0 215 8,3
05.08.2021 0,0 15,2 15,5 15,3 21,5 11,5 78 3,0 4260 0,5 2,8 149 9,8
04.08.2021 0,0 15,0 13,8 13,7 17,2 11,8 87 15,0 2408 0,5 2,9 207 6,4
03.08.2021 0,0 15,2 13,6 13,5 18,1 9,0 82 8,7 3405 0,7 4,5 203 10,2
02.08.2021 0,0 15,8 14,1 13,6 19,7 11,3 82 3,0 4647 0,9 7,3 256 9,0
01.08.2021 0,0 15,7 15,4 15,0 20,1 11,5 71 0,0 4367 0,8 5,6 258 9,8
31.07.2021 0,0 16,1 15,0 15,0 20,0 11,5 64 0,0 4624 1,4 8,9 232 9,0
30.07.2021 0,0 16,0 17,6 17,5 24,1 10,4 57 0,0 6409 1,1 6,5 225 8,9
29.07.2021 0,0 16,2 15,2 15,2 19,4 12,6 65 0,0 4470 1,3 11,0 225 10,6
28.07.2021 0,0 16,5 15,7 15,6 20,1 12,6 82 4,4 4041 1,2 7,4 224 9,8
27.07.2021 0,0 16,9 18,0 17,7 23,8 13,6 71 8,6 4920 1,1 6,2 215 10,8
26.07.2021 0,0 16,8 18,7 18,9 23,9 14,3 69 0,0 4195 0,9 5,9 209 8,9
25.07.2021 0,0 16,8 18,4 18,5 24,5 13,3 72 0,0 4509 1,1 6,2 173 10,5
24.07.2021 0,0 16,4 19,7 19,9 24,9 15,0 62 0,7 4178 2,1 9,0 166 9,9
23.07.2021 0,0 15,9 17,4 18,0 24,3 11,7 60 0,0 4500 0,7 3,4 124 9,5
22.07.2021 0,0 15,9 16,5 16,5 22,9 11,3 61 0,0 5038 0,7 4,4 336 11,1
21.07.2021 0,0 15,5 14,6 15,0 21,4 8,6 61 0,0 6106 1,1 5,1 79 9,3
20.07.2021 0,0 16,4 14,1 13,9 19,6 9,0 69 0,0 5918 1,0 5,8 47 11,7
19.07.2021 0,0 17,0 16,2 15,9 20,0 12,0 72 0,0 6286 1,0 6,2 16 10,5
18.07.2021 0,0 16,8 17,1 17,4 23,4 11,4 68 0,0 7061 1,1 5,9 49 9,5
17.07.2021 0,0 16,8 17,3 17,1 22,3 12,4 79 2,2 4126 1,0 6,3 349 9,5
16.07.2021 0,0 16,1 16,5 16,4 21,2 11,9 84 0,0 3869 1,1 5,3 3 10,3
15.07.2021 0,0 15,9 15,0 15,1 20,0 11,2 82 5,9 3689 0,6 4,2 179 8,7
14.07.2021 0,0 16,4 14,3 14,1 19,7 11,8 84 0,1 3910 1,0 7,1 209 7,2
13.07.2021 0,0 16,8 17,7 17,6 22,7 13,1 78 9,5 3058 0,7 5,1 282 8,9
12.07.2021 0,0 16,2 17,1 17,3 22,5 11,3 71 0,0 6205 0,8 5,5 155 10,6
11.07.2021 0,0 16,0 15,2 15,1 19,2 12,3 84 12,6 2809 0,5 4,9 210 8,3
10.07.2021 0,0 15,7 16,4 16,6 21,6 11,0 67 0,0 6708 1,1 6,0 167 11,6
09.07.2021 0,0 15,7 12,9 13,0 14,1 10,7 94 42,2 1027 0,9 5,0 329 1,6
08.07.2021 0,0 16,4 16,8 16,7 22,3 13,1 77 0,4 4096 0,7 4,5 78 10,0
07.07.2021 0,0 16,1 16,5 16,4 22,0 12,9 72 0,0 4717 1,0 5,6 175 10,0
06.07.2021 0,0 16,0 16,1 16,3 20,6 13,8 77 6,8 2607 1,9 8,8 195 8,3
05.07.2021 0,0 16,2 15,8 15,6 19,3 12,8 81 4,0 3834 1,3 6,6 214 10,1
04.07.2021 0,0 16,4 16,2 16,3 23,8 12,5 75 7,1 3891 0,7 5,5 174 8,5
03.07.2021 0,0 16,0 16,8 17,1 23,9 9,7 57 0,0 6936 1,0 4,3 209 11,0
02.07.2021 0,0 15,3 13,2 13,2 18,8 10,2 77 1,9 4420 0,8 4,5 257 10,3
01.07.2021 0,0 15,7 11,2 11,2 12,5 10,3 93 3,5 1744 1,4 9,9 278 6,3
30.06.2021 0,0 17,0 14,1 14,0 18,1 12,1 81 0,3 4162 1,1 6,5 259 10,8
29.06.2021 0,0 17,2 16,5 16,8 23,1 13,3 81 3,3 3851 0,8 9,0 189 10,3
28.06.2021 0,0 17,9 21,6 21,6 27,6 13,5 59 55,2 6089 1,3 17,2 180 11,2
27.06.2021 0,0 16,8 19,6 19,5 25,5 12,4 55 0,0 7220 1,2 6,3 145 12,6
26.06.2021 0,0 16,0 16,0 16,3 21,4 11,7 71 0,1 2929 0,4 3,7 145 11,1
25.06.2021 0,0 16,5 14,9 14,8 20,0 11,9 77 0,4 4042 0,7 3,7 312 10,6
24.06.2021 0,0 16,5 14,5 14,4 17,8 12,4 85 2,8 2652 0,5 2,9 4 10,6
23.06.2021 0,0 16,9 15,8 15,7 20,4 12,3 82 4,7 3409 0,6 4,5 19 11,3
22.06.2021 0,0 17,5 13,9 13,6 19,1 11,2 86 2,3 3772 0,8 4,4 18 7,9
21.06.2021 0,0 18,6 18,5 18,0 23,6 12,3 71 0,8 6482 1,1 6,1 231 11,9
20.06.2021 0,0 19,0 21,7 21,5 25,3 16,1 67 13,0 4105 1,1 8,0 200 9,5
19.06.2021 0,0 19,2 24,5 24,5 30,2 20,4 52 0,0 6777 0,8 6,7 174 11,2
18.06.2021 0,0 18,2 24,4 25,1 31,2 18,7 42 0,0 5362 0,8 5,7 159 11,0
17.06.2021 0,0 18,0 23,6 24,0 29,9 19,3 40 0,0 7448 1,5 7,4 155 10,9
16.06.2021 0,0 17,3 22,0 22,1 27,4 15,1 51 0,0 6713 1,4 6,7 160 11,5
15.06.2021 0,0 16,3 19,7 19,9 26,5 13,7 57 0,0 6407 0,8 3,5 44 12,4
14.06.2021 0,0 15,2 17,0 17,2 25,0 9,5 53 0,0 7693 1,2 6,0 156 10,7
13.06.2021 0,0 15,0 13,1 12,9 18,8 7,8 59 0,0 7845 1,1 5,4 316 11,8
12.06.2021 0,0 15,7 16,4 16,5 21,6 10,3 69 0,9 4126 1,2 6,1 277 10,5
11.06.2021 0,0 15,6 18,8 19,1 24,9 12,3 58 0,0 6131 0,9 4,3 228 11,8
10.06.2021 0,0 14,8 17,3 17,9 24,1 12,1 63 0,2 6575 0,9 5,5 71 12,9
09.06.2021 0,0 14,2 15,6 15,9 23,7 12,6 76 6,2 3873 1,0 7,6 149 8,3
08.06.2021 0,0 14,0 16,4 15,9 20,2 12,9 82 0,5 3348 0,5 3,5 23 10,9
07.06.2021 0,0 13,5 14,7 14,3 17,4 12,7 92 1,0 2097 0,6 3,4 15 7,2
06.06.2021 0,0 13,8 14,0 13,8 14,7 12,8 97 2,3 824 1,0 4,6 345 0,3
05.06.2021 0,0 14,2 17,2 17,0 22,9 13,6 77 12,9 3752 0,7 4,1 215 9,4
04.06.2021 0,0 14,4 18,3 18,4 24,7 14,3 72 0,1 3983 0,7 4,6 173 8,5
03.06.2021 0,0 13,5 19,5 19,6 25,9 14,9 49 0,0 6442 1,4 6,6 160 9,9
02.06.2021 0,0 12,6 17,3 17,7 23,7 12,5 46 0,0 7577 1,3 6,0 160 11,0
01.06.2021 0,0 11,6 15,0 15,4 21,8 9,6 47 0,0 7099 1,2 5,0 137 10,5
31.05.2021 0,0 10,6 11,7 12,5 20,1 6,1 48 0,0 5877 1,1 5,5 95 8,7
30.05.2021 0,0 10,2 10,2 10,8 16,7 4,7 61 0,0 5725 1,6 7,7 87 10,2
29.05.2021 0,0 10,0 9,8 10,0 15,5 4,1 64 0,0 7124 1,1 5,2 30 11,0
28.05.2021 0,0 9,3 9,2 9,3 14,9 6,3 72 1,1 4583 0,8 4,6 347 11,2
27.05.2021 0,0 8,5 6,7 6,7 9,5 5,4 95 7,6 1966 1,8 8,6 261 6,0
26.05.2021 0,0 8,7 6,6 6,7 8,8 5,3 93 10,4 1956 1,9 9,0 237 6,6
25.05.2021 0,0 9,5 5,8 5,7 8,0 4,0 88 8,3 2529 2,3 12,2 239 8,4
24.05.2021 0,0 10,0 13,9 13,2 20,5 5,5 55 0,2 5955 1,4 9,0 212 10,4
23.05.2021 0,0 9,3 8,3 8,3 12,9 5,3 72 0,9 4136 1,8 10,2 233 9,7
22.05.2021 0,0 9,4 7,4 7,5 10,8 4,3 80 10,4 3441 2,3 11,2 231 10,6
21.05.2021 0,0 10,1 10,6 10,7 13,9 8,3 57 0,0 4478 2,6 13,1 218 11,5
20.05.2021 0,0 10,0 9,0 8,8 14,1 4,7 73 0,1 4218 1,3 5,8 259 8,9
19.05.2021 0,0 9,9 8,1 8,0 13,5 3,6 74 3,2 5010 1,1 5,9 270 9,6
18.05.2021 0,0 9,9 8,1 7,9 12,8 5,7 84 1,5 5339 1,7 7,9 266 10,1
17.05.2021 0,0 9,6 7,7 7,6 11,6 5,7 90 14,2 3245 1,9 10,9 243 7,4
16.05.2021 0,0 9,8 8,0 7,9 12,4 5,8 85 13,4 3856 1,6 8,6 226 9,1
15.05.2021 0,0 10,1 8,6 8,6 12,6 6,1 75 2,0 4070 1,7 11,9 221 10,1
14.05.2021 0,0 10,4 10,2 10,2 15,4 7,5 70 0,0 5260 1,5 6,1 262 10,0
13.05.2021 0,0 9,7 8,9 9,5 13,8 6,1 76 3,4 2938 1,0 5,6 183 9,5
12.05.2021 0,0 10,3 9,2 9,5 11,8 6,7 87 3,6 2074 1,4 5,9 293 7,6
11.05.2021 0,0 10,9 11,3 11,3 13,8 9,5 93 5,7 1695 0,8 5,8 324 6,8
10.05.2021 0,0 11,3 15,7 16,3 20,2 10,3 51 0,6 5054 1,8 9,8 225 10,8
09.05.2021 0,0 9,2 16,8 17,1 24,6 8,1 41 0,0 6502 2,1 9,5 153 9,4
08.05.2021 0,0 6,5 7,7 8,1 13,6 1,8 43 0,0 5613 1,9 7,9 192 10,7
07.05.2021 0,0 6,1 3,0 3,1 7,0 0,7 79 3,9 3892 1,9 8,6 276 8,2
06.05.2021 0,0 5,8 3,4 3,4 8,2 0,8 83 5,7 3787 1,8 8,1 221 9,4
05.05.2021 0,0 6,1 3,3 3,4 6,4 0,8 84 5,9 3817 2,5 13,0 260 8,8
04.05.2021 0,0 6,5 6,4 6,7 8,4 5,3 64 1,7 1766 3,5 17,6 218 6,2
03.05.2021 0,0 6,9 5,2 5,3 10,8 0,6 54 0,0 5652 1,7 7,9 251 9,7
02.05.2021 0,0 7,3 4,1 4,2 6,9 2,3 72 2,0 2995 1,8 6,8 292 9,1
01.05.2021 0,0 7,8 7,2 7,1 11,3 4,3 77 1,2 2562 0,6 3,4 358 8,5
30.04.2021 0,0 7,5 5,0 5,0 9,3 1,2 79 0,9 2665 0,8 5,1 319 7,0
29.04.2021 0,0 9,0 8,2 8,2 12,8 2,5 70 2,0 4577 2,1 10,7 263 10,5
28.04.2021 0,0 8,0 10,8 10,7 17,7 4,2 43 0,0 6593 2,0 7,9 136 9,8
27.04.2021 0,0 6,8 5,8 6,0 13,2 -0,2 43 0,0 6587 1,5 8,5 121 9,2
26.04.2021 0,0 6,5 4,1 4,2 10,7 -1,0 45 0,0 6765 1,3 6,7 94 9,3
25.04.2021 0,0 6,9 3,4 3,8 9,1 -0,7 63 0,0 6396 1,3 6,1 68 9,1
24.04.2021 0,0 7,1 5,3 6,0 11,4 1,6 60 0,0 6089 1,2 5,8 71 10,1
23.04.2021 0,0 6,8 4,1 4,7 11,3 -0,6 62 0,0 6557 1,0 5,5 343 10,5
22.04.2021 0,0 7,2 4,0 3,9 9,4 -0,8 63 0,0 6661 1,7 7,0 335 10,6
21.04.2021 0,0 7,1 8,5 9,1 14,9 5,1 61 0,0 4828 1,2 8,9 268 10,3
20.04.2021 0,0 5,6 6,1 6,9 13,6 2,3 76 6,9 3283 1,0 5,3 131 6,3
19.04.2021 0,0 5,7 5,7 5,9 9,7 3,5 78 0,0 2907 0,8 4,0 71 8,4
18.04.2021 0,0 4,6 4,9 4,9 9,7 2,5 87 2,8 1856 0,5 3,9 5 6,6
17.04.2021 0,0 3,5 2,4 2,7 5,4 -0,2 65 0,0 2408 0,8 5,0 29 8,5
16.04.2021 0,0 3,2 1,0 1,1 4,7 -1,7 77 1,4 2232 0,9 7,0 38 8,2
15.04.2021 0,0 2,7 -0,3 0,0 5,1 -2,8 79 0,0 3510 0,9 6,8 47 9,7
14.04.2021 0,0 2,9 -0,6 -0,2 5,2 -2,8 74 0,0 3407 0,9 6,7 55 8,8
13.04.2021 0,0 3,1 -0,3 0,0 5,4 -3,1 73 0,1 3482 1,0 5,4 288 9,0
12.04.2021 0,0 4,2 0,0 0,1 4,6 -1,8 83 1,5 3284 1,5 7,2 328 8,5
11.04.2021 0,0 4,9 7,9 8,0 13,6 -0,6 71 5,7 2661 2,0 7,8 227 7,0
10.04.2021 0,0 2,5 5,8 6,3 8,3 3,5 82 2,7 1373 1,2 7,1 180 5,7
09.04.2021 0,0 1,9 4,8 5,3 12,2 -1,3 44 5,1 4460 1,8 7,5 209 9,9
08.04.2021 0,0 2,2 -1,0 -0,7 2,6 -3,1 72 1,3 3295 2,2 7,1 249 10,2
07.04.2021 0,0 2,4 -2,5 -2,4 -0,2 -4,2 89 0,0 2217 3,1 9,1 273 8,6
06.04.2021 0,0 2,4 -2,6 -2,4 2,0 -4,6 81 0,3 3403 2,8 10,0 275 7,9
05.04.2021 0,0 3,9 0,0 0,2 2,9 -4,6 82 2,7 1274 3,1 11,5 266 4,0
04.04.2021 0,0 5,1 2,0 2,7 7,1 -1,1 72 0,0 3302 1,3 4,7 217 9,0
03.04.2021 0,0 6,3 2,6 2,7 7,3 -0,1 68 0,0 3612 1,5 6,8 321 8,8
02.04.2021 0,0 7,7 4,5 4,4 9,0 1,8 72 0,0 4099 1,7 8,2 357 8,8
01.04.2021 0,0 8,9 13,3 14,2 20,3 4,1 40 0,0 4526 1,6 6,7 299 9,4
31.03.2021 0,0 8,2 14,1 16,1 22,4 10,5 26 0,0 5149 1,5 5,6 185 9,0
30.03.2021 0,0 7,1 12,8 14,8 20,9 9,7 28 0,0 5087 1,2 4,4 132 8,9
29.03.2021 0,0 5,8 10,4 10,7 16,3 5,6 41 0,0 4582 1,7 7,2 245 9,6
28.03.2021 0,0 3,9 5,2 5,4 10,6 0,6 64 0,4 3817 2,0 8,1 236 8,9
27.03.2021 0,0 4,4 3,3 3,6 8,8 -0,1 79 4,4 1839 2,6 13,2 242 6,0
26.03.2021 0,0 5,2 7,8 8,2 13,7 3,6 60 0,0 3521 1,4 7,4 190 8,6
25.03.2021 0,0 4,5 8,1 8,8 14,2 4,7 52 0,0 4098 1,8 7,5 213 9,0
24.03.2021 0,0 3,0 4,7 5,5 12,0 0,7 62 0,0 4739 1,2 4,3 188 8,3
23.03.2021 0,0 2,4 1,4 1,6 3,3 0,6 87 0,0 1018 1,1 3,4 275 2,3
22.03.2021 0,0 2,0 1,0 1,1 3,6 -0,9 81 0,1 2015 1,6 6,6 310 6,9
21.03.2021 0,0 1,5 0,7 0,9 3,6 -1,8 73 0,4 1793 2,2 10,0 287 6,2
20.03.2021 0,0 1,4 -3,7 -3,4 1,5 -9,3 59 2,1 4084 0,8 4,0 356 8,6
19.03.2021 0,0 1,6 -1,6 -1,6 1,5 -3,5 85 0,3 1964 1,2 9,8 48 5,7
18.03.2021 0,0 1,5 -0,8 -0,7 3,8 -3,9 80 0,3 2759 0,8 4,4 281 8,6
17.03.2021 0,0 1,8 -0,5 -0,4 2,1 -2,5 77 0,7 2119 1,1 6,5 336 7,2
16.03.2021 0,0 1,7 0,6 0,8 4,6 -0,4 81 0,8 2069 1,9 9,2 294 6,1
15.03.2021 0,0 1,7 0,9 1,1 3,9 -0,3 90 4,5 2183 2,5 9,5 270 6,6
14.03.2021 0,0 2,0 0,8 1,0 3,6 -0,1 89 0,8 1305 2,7 11,4 268 3,8
13.03.2021 0,0 2,4 2,3 2,6 4,2 1,3 90 13,9 742 3,4 14,5 239 1,0
12.03.2021 0,0 2,7 2,6 2,8 5,4 0,7 77 4,4 1897 3,3 16,8 248 6,9
11.03.2021 0,0 2,6 4,3 4,6 9,3 2,0 83 5,3 785 3,5 19,3 232 1,4
10.03.2021 0,0 1,8 2,0 2,1 4,8 0,1 80 2,8 2318 1,0 7,7 238 6,7
09.03.2021 0,0 0,7 -0,3 -0,1 2,7 -2,1 77 0,0 1507 0,6 3,9 233 5,4
08.03.2021 0,0 0,7 -1,8 -1,4 1,5 -4,6 80 0,0 1041 0,6 4,0 88 3,5
07.03.2021 0,0 1,1 -1,2 -0,4 5,7 -4,4 52 0,1 4023 0,9 4,0 97 8,1
06.03.2021 0,0 1,5 -2,4 -1,3 4,6 -5,5 49 1,9 3932 1,0 3,8 137 8,1
05.03.2021 0,0 3,2 -1,0 -0,9 1,7 -4,2 75 0,0 2036 1,4 6,9 30 6,8
04.03.2021 0,0 4,4 6,3 6,7 11,0 0,0 72 0,8 1819 1,3 6,1 257 5,9
03.03.2021 0,0 3,6 6,8 8,2 13,8 4,0 47 0,0 2664 1,1 6,0 199 8,0
02.03.2021 0,0 3,5 5,5 6,3 12,8 0,9 54 0,0 3781 1,2 7,3 164 8,1
01.03.2021 0,0 3,2 5,2 5,7 12,1 0,9 51 0,0 3651 1,1 6,6 137 8,1
28.02.2021 0,0 3,4 2,5 3,0 9,4 -2,3 61 0,0 3600 1,0 4,7 84 8,1
27.02.2021 0,0 3,5 1,1 1,2 2,8 -0,4 87 0,0 1376 1,0 5,6 24 5,5
26.02.2021 0,0 4,7 4,2 5,0 9,9 0,9 77 0,3 497 0,9 5,7 73 0,1
25.02.2021 0,0 6,3 12,0 12,8 16,6 9,7 40 0,0 3266 1,7 6,0 211 7,9
24.02.2021 0,0 6,0 12,3 12,6 16,7 8,3 58 0,0 2884 1,7 8,8 200 7,7
23.02.2021 0,0 5,0 12,0 12,8 16,1 9,9 48 0,0 2796 1,9 7,7 208 7,6
22.02.2021 0,0 4,0 7,7 9,1 17,7 2,3 51 0,0 2943 0,8 5,5 132 7,2
21.02.2021 0,0 3,9 9,4 10,0 15,9 6,5 52 0,0 3181 2,2 10,1 140 7,9
20.02.2021 0,0 2,8 8,0 8,5 12,5 5,0 68 0,0 2641 1,9 10,6 163 7,8
19.02.2021 0,0 1,0 4,1 4,3 7,7 1,0 73 1,2 2526 1,8 9,0 224 6,5
18.02.2021 0,0 0,0 4,3 4,9 7,4 2,8 73 0,0 1752 3,1 12,4 154 6,8
17.02.2021 0,0 0,0 3,6 4,0 5,3 2,8 89 5,5 1278 2,3 12,7 250 5,0
16.02.2021 0,0 0,0 3,2 3,6 10,5 -0,5 83 24,5 1835 2,0 10,3 199 6,0
15.02.2021 0,0 0,0 -3,9 -3,6 0,1 -7,2 56 0,0 1069 4,4 14,4 161 5,5
14.02.2021 0,0 0,0 -8,1 -6,5 -2,1 -11,2 56 0,0 3986 1,8 12,2 135 8,0
13.02.2021 0,0 0,1 -10,0 -9,1 -3,3 -13,1 72 0,0 2732 0,8 5,4 128 7,9
12.02.2021 0,0 0,1 -11,5 -10,0 -3,0 -13,4 78 0,0 1484 0,3 3,8 84 4,9
11.02.2021 0,0 0,1 -9,1 -8,6 -4,1 -12,5 85 0,0 480 0,0 0,0 --- 0,3
10.02.2021 0,0 0,2 -14,0 -12,5 -7,7 -16,9 78 0,0 1183 0,0 0,0 --- 4,8
09.02.2021 0,0 0,3 -13,6 -12,9 -7,0 -16,9 80 0,0 959 0,0 0,0 --- 3,8
08.02.2021 0,0 0,4 -9,5 -9,6 -6,3 -12,1 87 0,0 277 0,0 0,0 --- ---
07.02.2021 0,0 0,7 -3,5 -3,5 -0,8 -7,9 95 0,0 360 0,0 0,0 --- 0,2
06.02.2021 0,0 1,4 0,9 1,0 2,8 -1,3 96 2,4 324 1,0 6,9 82 ---
05.02.2021 0,0 1,4 3,3 3,8 7,4 1,2 81 2,8 984 1,3 7,7 154 3,3
04.02.2021 0,0 0,9 2,9 3,5 5,7 1,1 83 12,6 1236 2,3 14,6 249 4,6
03.02.2021 0,0 0,1 5,4 6,3 7,6 5,1 93 24,9 560 2,5 11,7 231 1,3
02.02.2021 0,0 0,2 2,5 3,0 6,6 0,8 96 9,5 640 2,3 12,4 242 1,1
01.02.2021 0,0 0,2 -1,6 -1,3 1,8 -3,8 94 2,0 900 0,5 6,4 222 3,6
31.01.2021 0,0 0,1 -4,3 -4,0 1,5 -7,1 85 0,0 1120 0,6 5,0 100 3,8
30.01.2021 0,0 0,0 -1,1 -1,0 3,3 -4,0 92 7,1 358 2,0 15,6 19 ---
29.01.2021 0,0 -0,1 2,9 3,9 5,2 0,2 95 36,8 493 2,9 15,6 245 0,6
28.01.2021 0,0 0,5 0,5 1,2 3,2 -1,1 97 33,2 440 2,0 6,9 240 ---
27.01.2021 0,0 0,7 -2,3 -2,0 -0,9 -4,2 92 0,0 853 2,2 8,1 234 2,9
26.01.2021 0,0 0,7 -2,4 -2,1 -0,6 -4,5 94 0,0 592 2,7 12,6 270 1,2
25.01.2021 0,0 0,6 -3,6 -3,0 0,0 -5,3 81 0,0 901 0,9 4,6 179 3,7
24.01.2021 0,0 0,5 -2,0 -1,8 -0,8 -3,0 94 0,0 351 2,6 9,7 241 ---
23.01.2021 0,0 0,4 -0,8 -0,6 1,3 -1,9 93 0,0 510 1,1 9,4 167 0,1
22.01.2021 0,0 0,1 2,1 2,5 6,0 -0,6 88 4,0 715 1,9 14,0 208 2,1
21.01.2021 0,0 0,7 4,4 5,3 6,9 2,9 64 4,5 523 3,8 14,2 190 0,6
20.01.2021 0,0 1,0 1,9 3,7 6,9 -0,2 57 23,5 1231 4,1 12,1 211 4,9
19.01.2021 0,0 1,0 -0,6 -0,2 1,1 -0,8 93 0,0 490 3,9 15,0 244 ---
18.01.2021 0,0 1,1 -0,9 -0,7 -0,1 -2,1 97 0,0 253 1,8 7,1 265 ---
17.01.2021 0,0 1,1 -4,4 -4,2 -1,2 -6,2 85 0,0 441 0,6 5,1 207 ---
16.01.2021 0,0 1,1 -5,9 -5,7 -4,0 -6,8 81 0,0 686 1,2 4,9 282 2,1
15.01.2021 0,0 1,1 -5,3 -4,3 -2,0 -7,2 85 0,0 523 1,0 5,2 327 0,1
14.01.2021 0,0 1,1 -3,2 -2,9 -1,2 -4,1 80 0,0 543 1,5 8,8 342 0,9
13.01.2021 0,0 1,2 -2,3 -2,0 -1,4 -2,7 93 0,0 446 3,1 12,9 265 0,7
12.01.2021 0,0 1,2 -1,2 -1,1 0,0 -2,4 96 0,0 458 3,6 13,9 255 0,3
11.01.2021 0,0 1,2 -5,7 -4,1 -0,3 -7,1 74 0,0 650 1,7 9,9 174 1,9
10.01.2021 0,0 1,3 -5,9 -4,0 0,5 -7,5 76 0,0 326 0,8 3,1 152 ---
09.01.2021 0,0 1,3 -3,7 -3,5 -2,6 -4,2 89 0,0 165 0,6 2,5 308 ---
08.01.2021 0,0 1,3 -2,3 -2,1 -1,2 -2,9 93 0,0 183 1,1 6,0 268 ---
07.01.2021 0,0 1,4 -2,8 -2,6 -1,8 -3,3 90 0,0 136 1,0 4,8 260 ---
06.01.2021 0,0 1,4 -1,7 -1,6 -0,3 -2,6 97 0,0 111 0,6 3,6 36 ---
05.01.2021 0,0 1,5 -1,9 -1,8 -0,2 -2,3 96 0,0 115 0,4 3,5 49 ---
04.01.2021 0,0 1,5 -2,1 -2,0 -0,6 -2,5 95 0,0 129 0,2 2,0 38 ---
03.01.2021 0,0 1,5 -2,5 -2,3 -1,2 -4,9 93 0,0 169 0,8 6,3 41 ---
02.01.2021 0,0 1,5 -3,8 -2,8 0,1 -5,0 85 0,0 286 0,7 4,2 119 ---
01.01.2021 0,0 1,6 -0,8 -0,5 1,6 -2,4 92 0,0 461 0,6 3,8 232 0,7

Mittelwerte (Temperaturen, Strahlung, rel. Feuchte, Wind), Summe (Regen) für 2021
0,0 9,2 8,4 8,7 74 812 3.148 1,3

Landesbetrieb Landwirtschaft Hessen 2009

      Werte bis 5 Uhr SommerzeitCSV-Datei: Wuestensachsen21.csvDiagramm: Wuestensachsen